Terminal Aerodrome Forecast
Issued by NWS

Home | Current Version | Previous Version | Text Only | Print | Product List | Glossary On
Versions: 1 2 3 4 5 6 7 8 9 10 11 12 13 14 15 16 17 18 19 20 21 22 23 24 25
000
FTUS45 KBOU 231034 AAA
TAFAPA
TAF AMD
KAPA 231034Z 2311/2406 35008KT P6SM FEW020 SCT040 SCT120
     FM231115 02013G20KT P6SM OVC015
      TEMPO 2312/2315 5SM -SHRA
     FM231700 06010KT P6SM SCT035 OVC050
     FM232000 10008KT P6SM SCT040 BKN060
     FM240200 15006KT P6SM SCT060=

USA.gov is the U.S. government's official web portal to all federal, state and local government web resources and services.